FVMK weather

Mkonono Airport
Mkonono, Mashonaland West Province, Zimbabwe

Public forecast

Using degrees Celsius for public forecast. Weather courtesy of forecast.io.

Closest aviation weather report (METAR) to Mkonono Airport

Closest report is Robert Gabriel Mugabe International Airport, 40.7 nm (75.4 km) ESE. Retrieved 2019/10/20 05:00 UTC (31 minutes ago):

FVRG 200500Z 06008KT CAVOK 20/12 Q1023 NOSIG

Closest aviation forecast (TAF) to Mkonono Airport

Forecast is more than 12 hours old.

Closest forecast is Robert Gabriel Mugabe International Airport, 40.7 nm (75.4 km) ESE. Retrieved 2019-10-19 00:00 UTC (1 day ago):

TAF FBSK 182100Z 1900/2006 23010KT CAVOK TAF FVRG 182200Z 1900/2006 VRB03KT CAVOK